sensor_id;sensor_type;location;lat;lon;timestamp;P1;durP1;ratioP1;P2;durP2;ratioP2
13349;SDS011;6744;53.190;6.576;2023-06-14T00:00:45;4.47;;;1.53;;
13349;SDS011;6744;53.190;6.576;2023-06-14T00:03:11;2.30;;;1.30;;
13349;SDS011;6744;53.190;6.576;2023-06-14T00:05:39;1.63;;;1.53;;
13349;SDS011;6744;53.190;6.576;2023-06-14T00:08:08;3.97;;;1.90;;
13349;SDS011;6744;53.190;6.576;2023-06-14T00:10:34;1.83;;;1.47;;
13349;SDS011;6744;53.190;6.576;2023-06-14T00:13:03;2.30;;;1.60;;
13349;SDS011;6744;53.190;6.576;2023-06-14T00:15:30;1.80;;;1.27;;
13349;SDS011;6744;53.190;6.576;2023-06-14T00:17:56;3.30;;;1.70;;
13349;SDS011;6744;53.190;6.576;2023-06-14T00:20:25;1.93;;;1.60;;
13349;SDS011;6744;53.190;6.576;2023-06-14T00:22:51;2.53;;;1.60;;
13349;SDS011;6744;53.190;6.576;2023-06-14T00:25:17;3.40;;;1.47;;
13349;SDS011;6744;53.190;6.576;2023-06-14T00:27:42;2.43;;;1.53;;
13349;SDS011;6744;53.190;6.576;2023-06-14T00:30:07;2.37;;;1.40;;
13349;SDS011;6744;53.190;6.576;2023-06-14T00:32:33;2.40;;;1.50;;
13349;SDS011;6744;53.190;6.576;2023-06-14T00:34:59;2.93;;;1.50;;
13349;SDS011;6744;53.190;6.576;2023-06-14T00:37:24;2.23;;;1.50;;
13349;SDS011;6744;53.190;6.576;2023-06-14T00:39:50;3.60;;;1.50;;
13349;SDS011;6744;53.190;6.576;2023-06-14T00:42:24;2.93;;;1.30;;
13349;SDS011;6744;53.190;6.576;2023-06-14T00:44:50;2.00;;;1.30;;
13349;SDS011;6744;53.190;6.576;2023-06-14T00:47:15;4.03;;;1.57;;
13349;SDS011;6744;53.190;6.576;2023-06-14T00:49:41;2.20;;;1.40;;
13349;SDS011;6744;53.190;6.576;2023-06-14T00:52:06;1.67;;;1.50;;
13349;SDS011;6744;53.190;6.576;2023-06-14T00:54:32;1.63;;;1.40;;
13349;SDS011;6744;53.190;6.576;2023-06-14T00:56:57;2.10;;;1.40;;
13349;SDS011;6744;53.190;6.576;2023-06-14T00:59:23;2.83;;;1.30;;
13349;SDS011;6744;53.190;6.576;2023-06-14T01:01:48;3.40;;;1.60;;
13349;SDS011;6744;53.190;6.576;2023-06-14T01:04:13;1.30;;;1.20;;
13349;SDS011;6744;53.190;6.576;2023-06-14T01:13:01;1.87;;;1.53;;
13349;SDS011;6744;53.190;6.576;2023-06-14T01:15:30;1.77;;;1.50;;
13349;SDS011;6744;53.190;6.576;2023-06-14T01:17:56;2.13;;;1.10;;
13349;SDS011;6744;53.190;6.576;2023-06-14T01:20:28;1.93;;;1.20;;
13349;SDS011;6744;53.190;6.576;2023-06-14T01:22:54;2.63;;;1.37;;
13349;SDS011;6744;53.190;6.576;2023-06-14T01:25:20;1.70;;;1.23;;
13349;SDS011;6744;53.190;6.576;2023-06-14T01:27:51;2.80;;;1.43;;
13349;SDS011;6744;53.190;6.576;2023-06-14T01:30:18;2.43;;;1.20;;
13349;SDS011;6744;53.190;6.576;2023-06-14T01:32:46;1.40;;;1.30;;
13349;SDS011;6744;53.190;6.576;2023-06-14T01:35:12;2.63;;;1.30;;
13349;SDS011;6744;53.190;6.576;2023-06-14T01:37:37;4.40;;;1.60;;
13349;SDS011;6744;53.190;6.576;2023-06-14T01:40:03;1.77;;;1.20;;
13349;SDS011;6744;53.190;6.576;2023-06-14T01:42:31;3.07;;;1.30;;
13349;SDS011;6744;53.190;6.576;2023-06-14T01:44:58;2.27;;;1.20;;
13349;SDS011;6744;53.190;6.576;2023-06-14T01:47:24;3.00;;;1.30;;
13349;SDS011;6744;53.190;6.576;2023-06-14T01:49:50;2.07;;;1.40;;
13349;SDS011;6744;53.190;6.576;2023-06-14T01:52:15;1.83;;;1.20;;
13349;SDS011;6744;53.190;6.576;2023-06-14T01:54:41;2.50;;;1.27;;
13349;SDS011;6744;53.190;6.576;2023-06-14T01:57:08;2.27;;;1.20;;
13349;SDS011;6744;53.190;6.576;2023-06-14T01:59:33;1.23;;;1.10;;
13349;SDS011;6744;53.190;6.576;2023-06-14T02:01:59;2.07;;;1.20;;
13349;SDS011;6744;53.190;6.576;2023-06-14T02:04:25;2.30;;;1.50;;
13349;SDS011;6744;53.190;6.576;2023-06-14T02:06:50;2.77;;;1.40;;
13349;SDS011;6744;53.190;6.576;2023-06-14T02:09:16;2.57;;;1.70;;
13349;SDS011;6744;53.190;6.576;2023-06-14T02:11:42;1.50;;;1.40;;
13349;SDS011;6744;53.190;6.576;2023-06-14T02:14:07;2.43;;;1.23;;
13349;SDS011;6744;53.190;6.576;2023-06-14T02:16:35;3.20;;;1.33;;
13349;SDS011;6744;53.190;6.576;2023-06-14T02:19:01;1.77;;;1.63;;
13349;SDS011;6744;53.190;6.576;2023-06-14T02:21:26;2.77;;;1.47;;
13349;SDS011;6744;53.190;6.576;2023-06-14T02:23:52;2.13;;;1.47;;
13349;SDS011;6744;53.190;6.576;2023-06-14T02:26:17;2.50;;;1.53;;
13349;SDS011;6744;53.190;6.576;2023-06-14T02:28:42;4.17;;;1.60;;
13349;SDS011;6744;53.190;6.576;2023-06-14T02:31:08;2.93;;;1.40;;
13349;SDS011;6744;53.190;6.576;2023-06-14T02:33:33;2.13;;;1.73;;
13349;SDS011;6744;53.190;6.576;2023-06-14T02:35:59;2.07;;;1.70;;
13349;SDS011;6744;53.190;6.576;2023-06-14T02:38:24;3.60;;;1.60;;
13349;SDS011;6744;53.190;6.576;2023-06-14T02:40:49;2.10;;;1.90;;
13349;SDS011;6744;53.190;6.576;2023-06-14T02:43:15;3.03;;;1.50;;
13349;SDS011;6744;53.190;6.576;2023-06-14T02:45:42;2.30;;;1.60;;
13349;SDS011;6744;53.190;6.576;2023-06-14T02:48:08;2.03;;;1.70;;
13349;SDS011;6744;53.190;6.576;2023-06-14T02:50:33;3.03;;;1.80;;
13349;SDS011;6744;53.190;6.576;2023-06-14T02:52:58;3.00;;;1.63;;
13349;SDS011;6744;53.190;6.576;2023-06-14T02:55:24;4.40;;;1.70;;
13349;SDS011;6744;53.190;6.576;2023-06-14T02:57:49;3.47;;;1.77;;
13349;SDS011;6744;53.190;6.576;2023-06-14T03:00:15;4.17;;;1.97;;
13349;SDS011;6744;53.190;6.576;2023-06-14T03:02:40;2.53;;;1.77;;
13349;SDS011;6744;53.190;6.576;2023-06-14T03:05:07;3.00;;;2.00;;
13349;SDS011;6744;53.190;6.576;2023-06-14T03:07:33;2.70;;;2.10;;
13349;SDS011;6744;53.190;6.576;2023-06-14T03:09:59;3.30;;;1.90;;
13349;SDS011;6744;53.190;6.576;2023-06-14T03:12:24;3.73;;;2.10;;
13349;SDS011;6744;53.190;6.576;2023-06-14T03:14:50;2.50;;;2.30;;
13349;SDS011;6744;53.190;6.576;2023-06-14T03:17:16;5.47;;;2.17;;
13349;SDS011;6744;53.190;6.576;2023-06-14T03:19:42;3.50;;;2.10;;
13349;SDS011;6744;53.190;6.576;2023-06-14T03:22:08;4.23;;;2.33;;
13349;SDS011;6744;53.190;6.576;2023-06-14T03:24:33;3.73;;;1.87;;
13349;SDS011;6744;53.190;6.576;2023-06-14T03:27:01;4.53;;;2.40;;
13349;SDS011;6744;53.190;6.576;2023-06-14T03:29:27;3.00;;;2.17;;
13349;SDS011;6744;53.190;6.576;2023-06-14T03:31:59;3.53;;;2.33;;
13349;SDS011;6744;53.190;6.576;2023-06-14T03:34:28;2.73;;;2.07;;
13349;SDS011;6744;53.190;6.576;2023-06-14T03:36:53;2.27;;;1.80;;
13349;SDS011;6744;53.190;6.576;2023-06-14T03:39:19;3.83;;;2.20;;
13349;SDS011;6744;53.190;6.576;2023-06-14T03:41:45;4.33;;;2.17;;
13349;SDS011;6744;53.190;6.576;2023-06-14T03:44:10;3.83;;;2.13;;
13349;SDS011;6744;53.190;6.576;2023-06-14T03:46:36;2.23;;;1.97;;
13349;SDS011;6744;53.190;6.576;2023-06-14T03:49:01;3.43;;;2.20;;
13349;SDS011;6744;53.190;6.576;2023-06-14T03:51:27;6.67;;;2.13;;
13349;SDS011;6744;53.190;6.576;2023-06-14T03:53:53;3.80;;;2.27;;
13349;SDS011;6744;53.190;6.576;2023-06-14T03:56:20;3.57;;;1.97;;
13349;SDS011;6744;53.190;6.576;2023-06-14T03:58:45;3.83;;;2.40;;
13349;SDS011;6744;53.190;6.576;2023-06-14T04:01:10;3.07;;;2.20;;
13349;SDS011;6744;53.190;6.576;2023-06-14T04:03:37;2.73;;;2.30;;
13349;SDS011;6744;53.190;6.576;2023-06-14T04:06:03;5.37;;;2.67;;
13349;SDS011;6744;53.190;6.576;2023-06-14T04:08:29;2.93;;;2.03;;
13349;SDS011;6744;53.190;6.576;2023-06-14T04:10:55;2.40;;;2.10;;
13349;SDS011;6744;53.190;6.576;2023-06-14T04:13:20;4.70;;;2.23;;
13349;SDS011;6744;53.190;6.576;2023-06-14T04:15:45;3.17;;;2.17;;
13349;SDS011;6744;53.190;6.576;2023-06-14T04:18:11;4.20;;;2.60;;
13349;SDS011;6744;53.190;6.576;2023-06-14T04:20:36;3.10;;;2.17;;
13349;SDS011;6744;53.190;6.576;2023-06-14T04:23:12;3.10;;;2.47;;
13349;SDS011;6744;53.190;6.576;2023-06-14T04:25:38;4.40;;;2.50;;
13349;SDS011;6744;53.190;6.576;2023-06-14T04:28:03;2.87;;;2.00;;
13349;SDS011;6744;53.190;6.576;2023-06-14T04:30:29;2.97;;;2.30;;
13349;SDS011;6744;53.190;6.576;2023-06-14T04:32:56;4.03;;;2.50;;
13349;SDS011;6744;53.190;6.576;2023-06-14T04:35:22;4.80;;;2.60;;
13349;SDS011;6744;53.190;6.576;2023-06-14T04:37:49;3.60;;;2.33;;
13349;SDS011;6744;53.190;6.576;2023-06-14T04:40:14;3.10;;;2.47;;
13349;SDS011;6744;53.190;6.576;2023-06-14T04:42:40;6.03;;;2.87;;
13349;SDS011;6744;53.190;6.576;2023-06-14T04:45:06;2.87;;;2.17;;
13349;SDS011;6744;53.190;6.576;2023-06-14T04:47:32;4.87;;;2.70;;
13349;SDS011;6744;53.190;6.576;2023-06-14T04:49:59;5.77;;;2.63;;
13349;SDS011;6744;53.190;6.576;2023-06-14T04:52:25;4.60;;;2.40;;
13349;SDS011;6744;53.190;6.576;2023-06-14T04:54:51;4.10;;;2.40;;
13349;SDS011;6744;53.190;6.576;2023-06-14T04:57:19;3.10;;;2.70;;
13349;SDS011;6744;53.190;6.576;2023-06-14T04:59:47;3.37;;;2.50;;
13349;SDS011;6744;53.190;6.576;2023-06-14T05:02:13;5.77;;;2.97;;
13349;SDS011;6744;53.190;6.576;2023-06-14T05:04:39;4.07;;;2.80;;
13349;SDS011;6744;53.190;6.576;2023-06-14T05:07:09;2.93;;;2.60;;
13349;SDS011;6744;53.190;6.576;2023-06-14T05:09:35;2.90;;;2.30;;
13349;SDS011;6744;53.190;6.576;2023-06-14T05:12:01;6.20;;;4.07;;
13349;SDS011;6744;53.190;6.576;2023-06-14T05:14:27;4.33;;;2.90;;
13349;SDS011;6744;53.190;6.576;2023-06-14T05:16:52;4.67;;;3.30;;
13349;SDS011;6744;53.190;6.576;2023-06-14T05:19:18;4.60;;;4.07;;
13349;SDS011;6744;53.190;6.576;2023-06-14T05:21:45;3.73;;;3.43;;
13349;SDS011;6744;53.190;6.576;2023-06-14T05:24:12;4.20;;;3.80;;
13349;SDS011;6744;53.190;6.576;2023-06-14T05:26:38;4.47;;;3.70;;
13349;SDS011;6744;53.190;6.576;2023-06-14T05:29:03;4.80;;;4.00;;
13349;SDS011;6744;53.190;6.576;2023-06-14T05:31:28;4.50;;;4.07;;
13349;SDS011;6744;53.190;6.576;2023-06-14T05:33:54;9.53;;;4.33;;
13349;SDS011;6744;53.190;6.576;2023-06-14T05:36:20;5.00;;;3.87;;
13349;SDS011;6744;53.190;6.576;2023-06-14T05:38:46;7.30;;;4.47;;
13349;SDS011;6744;53.190;6.576;2023-06-14T05:41:12;5.23;;;4.37;;
13349;SDS011;6744;53.190;6.576;2023-06-14T05:43:37;5.20;;;3.80;;
13349;SDS011;6744;53.190;6.576;2023-06-14T05:46:03;4.80;;;4.20;;
13349;SDS011;6744;53.190;6.576;2023-06-14T05:48:28;6.03;;;4.40;;
13349;SDS011;6744;53.190;6.576;2023-06-14T05:50:55;5.00;;;3.80;;
13349;SDS011;6744;53.190;6.576;2023-06-14T05:53:20;7.67;;;4.43;;
13349;SDS011;6744;53.190;6.576;2023-06-14T05:55:46;5.87;;;4.43;;
13349;SDS011;6744;53.190;6.576;2023-06-14T05:58:11;5.67;;;4.43;;
13349;SDS011;6744;53.190;6.576;2023-06-14T06:00:38;4.97;;;4.47;;
13349;SDS011;6744;53.190;6.576;2023-06-14T06:03:04;6.43;;;4.87;;
13349;SDS011;6744;53.190;6.576;2023-06-14T06:05:29;5.03;;;3.70;;
13349;SDS011;6744;53.190;6.576;2023-06-14T06:07:55;4.10;;;3.70;;
13349;SDS011;6744;53.190;6.576;2023-06-14T06:10:21;3.73;;;2.93;;
13349;SDS011;6744;53.190;6.576;2023-06-14T06:12:46;6.47;;;2.87;;
13349;SDS011;6744;53.190;6.576;2023-06-14T06:15:13;4.37;;;3.00;;
13349;SDS011;6744;53.190;6.576;2023-06-14T06:17:39;5.53;;;2.87;;
13349;SDS011;6744;53.190;6.576;2023-06-14T06:20:05;4.70;;;3.00;;
13349;SDS011;6744;53.190;6.576;2023-06-14T06:22:33;3.60;;;3.03;;
13349;SDS011;6744;53.190;6.576;2023-06-14T06:24:59;3.00;;;2.70;;
13349;SDS011;6744;53.190;6.576;2023-06-14T06:27:24;4.67;;;3.00;;
13349;SDS011;6744;53.190;6.576;2023-06-14T06:29:49;4.27;;;2.67;;
13349;SDS011;6744;53.190;6.576;2023-06-14T06:32:16;4.83;;;2.93;;
13349;SDS011;6744;53.190;6.576;2023-06-14T06:34:42;5.20;;;2.60;;
13349;SDS011;6744;53.190;6.576;2023-06-14T06:37:07;3.63;;;2.80;;
13349;SDS011;6744;53.190;6.576;2023-06-14T06:39:32;4.70;;;2.57;;
13349;SDS011;6744;53.190;6.576;2023-06-14T06:41:58;3.70;;;2.63;;
13349;SDS011;6744;53.190;6.576;2023-06-14T06:44:23;5.53;;;2.53;;
13349;SDS011;6744;53.190;6.576;2023-06-14T06:46:49;4.67;;;2.63;;
13349;SDS011;6744;53.190;6.576;2023-06-14T06:49:14;6.30;;;2.70;;
13349;SDS011;6744;53.190;6.576;2023-06-14T06:51:40;6.00;;;2.70;;
13349;SDS011;6744;53.190;6.576;2023-06-14T06:54:07;5.10;;;2.60;;
13349;SDS011;6744;53.190;6.576;2023-06-14T06:56:33;5.60;;;2.77;;
13349;SDS011;6744;53.190;6.576;2023-06-14T06:58:58;6.57;;;2.80;;
13349;SDS011;6744;53.190;6.576;2023-06-14T07:01:24;5.87;;;2.60;;
13349;SDS011;6744;53.190;6.576;2023-06-14T07:03:51;2.33;;;1.87;;
13349;SDS011;6744;53.190;6.576;2023-06-14T07:06:16;3.70;;;2.33;;
13349;SDS011;6744;53.190;6.576;2023-06-14T07:08:43;2.80;;;2.13;;
13349;SDS011;6744;53.190;6.576;2023-06-14T07:11:09;3.07;;;2.30;;
13349;SDS011;6744;53.190;6.576;2023-06-14T07:13:34;4.10;;;2.50;;
13349;SDS011;6744;53.190;6.576;2023-06-14T07:16:00;5.27;;;2.23;;
13349;SDS011;6744;53.190;6.576;2023-06-14T07:18:26;3.47;;;2.20;;
13349;SDS011;6744;53.190;6.576;2023-06-14T07:20:52;4.20;;;1.93;;
13349;SDS011;6744;53.190;6.576;2023-06-14T07:23:18;6.17;;;2.50;;
13349;SDS011;6744;53.190;6.576;2023-06-14T07:25:43;3.73;;;2.20;;
13349;SDS011;6744;53.190;6.576;2023-06-14T07:28:09;3.63;;;2.27;;
13349;SDS011;6744;53.190;6.576;2023-06-14T07:30:35;3.57;;;2.20;;
13349;SDS011;6744;53.190;6.576;2023-06-14T07:33:00;5.57;;;2.27;;
13349;SDS011;6744;53.190;6.576;2023-06-14T07:35:26;4.83;;;2.47;;
13349;SDS011;6744;53.190;6.576;2023-06-14T07:37:51;3.73;;;2.60;;
13349;SDS011;6744;53.190;6.576;2023-06-14T07:40:16;3.07;;;2.50;;
13349;SDS011;6744;53.190;6.576;2023-06-14T07:42:42;2.30;;;2.10;;
13349;SDS011;6744;53.190;6.576;2023-06-14T07:45:07;5.13;;;2.37;;
13349;SDS011;6744;53.190;6.576;2023-06-14T07:47:33;3.00;;;2.30;;
13349;SDS011;6744;53.190;6.576;2023-06-14T07:49:58;2.57;;;2.03;;
13349;SDS011;6744;53.190;6.576;2023-06-14T07:52:24;2.67;;;2.30;;
13349;SDS011;6744;53.190;6.576;2023-06-14T07:54:49;7.33;;;2.30;;
13349;SDS011;6744;53.190;6.576;2023-06-14T07:57:15;5.27;;;2.53;;
13349;SDS011;6744;53.190;6.576;2023-06-14T07:59:40;3.67;;;2.27;;
13349;SDS011;6744;53.190;6.576;2023-06-14T08:02:06;2.80;;;2.07;;
13349;SDS011;6744;53.190;6.576;2023-06-14T08:04:31;4.60;;;2.40;;
13349;SDS011;6744;53.190;6.576;2023-06-14T08:06:57;2.87;;;2.03;;
13349;SDS011;6744;53.190;6.576;2023-06-14T08:09:23;3.37;;;1.90;;
13349;SDS011;6744;53.190;6.576;2023-06-14T08:11:50;2.97;;;2.30;;
13349;SDS011;6744;53.190;6.576;2023-06-14T08:14:15;4.27;;;2.10;;
13349;SDS011;6744;53.190;6.576;2023-06-14T08:16:41;2.70;;;2.27;;
13349;SDS011;6744;53.190;6.576;2023-06-14T08:19:06;4.20;;;2.60;;
13349;SDS011;6744;53.190;6.576;2023-06-14T08:21:32;2.80;;;2.30;;
13349;SDS011;6744;53.190;6.576;2023-06-14T08:23:58;3.23;;;2.30;;
13349;SDS011;6744;53.190;6.576;2023-06-14T08:26:24;4.57;;;2.53;;
13349;SDS011;6744;53.190;6.576;2023-06-14T08:28:54;4.53;;;2.20;;
13349;SDS011;6744;53.190;6.576;2023-06-14T08:31:20;2.50;;;2.30;;
13349;SDS011;6744;53.190;6.576;2023-06-14T08:33:45;4.23;;;1.97;;
13349;SDS011;6744;53.190;6.576;2023-06-14T08:36:10;2.47;;;2.10;;
13349;SDS011;6744;53.190;6.576;2023-06-14T08:38:37;4.83;;;2.30;;
13349;SDS011;6744;53.190;6.576;2023-06-14T08:41:02;5.77;;;2.07;;
13349;SDS011;6744;53.190;6.576;2023-06-14T08:43:30;3.97;;;1.93;;
13349;SDS011;6744;53.190;6.576;2023-06-14T08:45:57;3.80;;;2.20;;
13349;SDS011;6744;53.190;6.576;2023-06-14T08:48:25;2.70;;;1.90;;
13349;SDS011;6744;53.190;6.576;2023-06-14T08:50:51;2.93;;;1.80;;
13349;SDS011;6744;53.190;6.576;2023-06-14T08:53:27;5.13;;;2.17;;
13349;SDS011;6744;53.190;6.576;2023-06-14T08:55:53;3.10;;;1.77;;
13349;SDS011;6744;53.190;6.576;2023-06-14T08:58:20;5.33;;;2.40;;
13349;SDS011;6744;53.190;6.576;2023-06-14T09:00:49;3.63;;;2.00;;
13349;SDS011;6744;53.190;6.576;2023-06-14T09:03:17;4.00;;;2.03;;
13349;SDS011;6744;53.190;6.576;2023-06-14T09:05:42;3.73;;;2.10;;
13349;SDS011;6744;53.190;6.576;2023-06-14T09:08:08;5.57;;;2.30;;
13349;SDS011;6744;53.190;6.576;2023-06-14T09:10:34;3.70;;;2.10;;
13349;SDS011;6744;53.190;6.576;2023-06-14T09:13:02;3.03;;;2.30;;
13349;SDS011;6744;53.190;6.576;2023-06-14T09:15:28;2.77;;;1.90;;
13349;SDS011;6744;53.190;6.576;2023-06-14T09:17:54;3.47;;;2.30;;
13349;SDS011;6744;53.190;6.576;2023-06-14T09:20:20;3.40;;;2.33;;
13349;SDS011;6744;53.190;6.576;2023-06-14T09:22:46;2.83;;;2.37;;
13349;SDS011;6744;53.190;6.576;2023-06-14T09:25:11;5.47;;;2.37;;
13349;SDS011;6744;53.190;6.576;2023-06-14T09:27:40;5.00;;;2.40;;
13349;SDS011;6744;53.190;6.576;2023-06-14T09:30:08;5.70;;;2.37;;
13349;SDS011;6744;53.190;6.576;2023-06-14T09:32:37;6.83;;;2.60;;
13349;SDS011;6744;53.190;6.576;2023-06-14T09:35:05;5.83;;;2.23;;
13349;SDS011;6744;53.190;6.576;2023-06-14T09:37:32;4.13;;;2.40;;
13349;SDS011;6744;53.190;6.576;2023-06-14T09:39:58;3.83;;;2.23;;
13349;SDS011;6744;53.190;6.576;2023-06-14T09:42:24;3.00;;;2.13;;
13349;SDS011;6744;53.190;6.576;2023-06-14T09:44:54;2.90;;;1.80;;
13349;SDS011;6744;53.190;6.576;2023-06-14T09:47:21;3.57;;;2.20;;
13349;SDS011;6744;53.190;6.576;2023-06-14T09:49:47;3.50;;;2.10;;
13349;SDS011;6744;53.190;6.576;2023-06-14T09:52:17;3.53;;;2.03;;
13349;SDS011;6744;53.190;6.576;2023-06-14T09:54:44;2.43;;;2.00;;
13349;SDS011;6744;53.190;6.576;2023-06-14T09:57:15;4.13;;;2.00;;
13349;SDS011;6744;53.190;6.576;2023-06-14T09:59:42;2.53;;;1.70;;
13349;SDS011;6744;53.190;6.576;2023-06-14T10:02:31;4.63;;;2.00;;
13349;SDS011;6744;53.190;6.576;2023-06-14T10:05:06;2.97;;;2.00;;
13349;SDS011;6744;53.190;6.576;2023-06-14T10:07:40;4.13;;;2.20;;
13349;SDS011;6744;53.190;6.576;2023-06-14T10:10:20;2.77;;;2.07;;
13349;SDS011;6744;53.190;6.576;2023-06-14T10:12:46;3.27;;;2.00;;
13349;SDS011;6744;53.190;6.576;2023-06-14T10:15:15;4.30;;;1.93;;
13349;SDS011;6744;53.190;6.576;2023-06-14T10:17:52;6.53;;;2.20;;
13349;SDS011;6744;53.190;6.576;2023-06-14T10:22:55;5.40;;;2.27;;
13349;SDS011;6744;53.190;6.576;2023-06-14T10:25:25;2.90;;;1.90;;
13349;SDS011;6744;53.190;6.576;2023-06-14T10:27:52;6.03;;;2.20;;
13349;SDS011;6744;53.190;6.576;2023-06-14T10:30:18;3.90;;;1.90;;
13349;SDS011;6744;53.190;6.576;2023-06-14T10:33:03;4.77;;;2.17;;
13349;SDS011;6744;53.190;6.576;2023-06-14T10:35:30;6.00;;;2.27;;
13349;SDS011;6744;53.190;6.576;2023-06-14T10:37:55;3.93;;;2.00;;
13349;SDS011;6744;53.190;6.576;2023-06-14T10:40:31;4.37;;;2.30;;
13349;SDS011;6744;53.190;6.576;2023-06-14T10:42:57;3.10;;;2.10;;
13349;SDS011;6744;53.190;6.576;2023-06-14T10:45:22;3.00;;;1.97;;
13349;SDS011;6744;53.190;6.576;2023-06-14T10:47:48;2.20;;;2.00;;
13349;SDS011;6744;53.190;6.576;2023-06-14T10:50:14;3.70;;;2.20;;
13349;SDS011;6744;53.190;6.576;2023-06-14T10:52:41;8.87;;;2.53;;
13349;SDS011;6744;53.190;6.576;2023-06-14T10:55:15;3.47;;;2.27;;
13349;SDS011;6744;53.190;6.576;2023-06-14T10:57:51;3.03;;;2.40;;
13349;SDS011;6744;53.190;6.576;2023-06-14T11:00:24;4.03;;;2.10;;
13349;SDS011;6744;53.190;6.576;2023-06-14T11:10:43;4.87;;;2.03;;
13349;SDS011;6744;53.190;6.576;2023-06-14T11:13:12;2.40;;;1.93;;
13349;SDS011;6744;53.190;6.576;2023-06-14T11:15:38;6.20;;;2.43;;
13349;SDS011;6744;53.190;6.576;2023-06-14T11:18:07;4.10;;;2.00;;
13349;SDS011;6744;53.190;6.576;2023-06-14T11:20:35;2.53;;;1.80;;
13349;SDS011;6744;53.190;6.576;2023-06-14T11:23:01;2.90;;;1.67;;
13349;SDS011;6744;53.190;6.576;2023-06-14T11:25:27;3.80;;;1.90;;
13349;SDS011;6744;53.190;6.576;2023-06-14T11:27:55;3.37;;;1.57;;
13349;SDS011;6744;53.190;6.576;2023-06-14T11:30:21;3.73;;;1.73;;
13349;SDS011;6744;53.190;6.576;2023-06-14T11:32:47;3.90;;;2.00;;
13349;SDS011;6744;53.190;6.576;2023-06-14T11:35:13;3.63;;;1.70;;
13349;SDS011;6744;53.190;6.576;2023-06-14T11:37:39;1.80;;;1.70;;
13349;SDS011;6744;53.190;6.576;2023-06-14T11:40:07;1.63;;;1.43;;
13349;SDS011;6744;53.190;6.576;2023-06-14T11:42:35;1.97;;;1.60;;
13349;SDS011;6744;53.190;6.576;2023-06-14T11:45:00;4.40;;;1.67;;
13349;SDS011;6744;53.190;6.576;2023-06-14T11:47:34;5.00;;;1.70;;
13349;SDS011;6744;53.190;6.576;2023-06-14T11:50:01;2.73;;;1.53;;
13349;SDS011;6744;53.190;6.576;2023-06-14T11:52:26;1.63;;;1.53;;
13349;SDS011;6744;53.190;6.576;2023-06-14T11:54:52;1.90;;;1.17;;
13349;SDS011;6744;53.190;6.576;2023-06-14T11:57:18;2.13;;;1.57;;
13349;SDS011;6744;53.190;6.576;2023-06-14T11:59:44;3.03;;;1.40;;
13349;SDS011;6744;53.190;6.576;2023-06-14T12:02:13;4.00;;;1.60;;
13349;SDS011;6744;53.190;6.576;2023-06-14T12:04:42;3.07;;;1.40;;
13349;SDS011;6744;53.190;6.576;2023-06-14T12:07:09;2.33;;;1.50;;
13349;SDS011;6744;53.190;6.576;2023-06-14T12:09:40;5.30;;;1.40;;
13349;SDS011;6744;53.190;6.576;2023-06-14T12:12:26;3.50;;;1.20;;
13349;SDS011;6744;53.190;6.576;2023-06-14T12:14:51;1.50;;;1.40;;
13349;SDS011;6744;53.190;6.576;2023-06-14T12:17:18;2.27;;;1.47;;
13349;SDS011;6744;53.190;6.576;2023-06-14T12:19:44;2.07;;;1.23;;
13349;SDS011;6744;53.190;6.576;2023-06-14T12:22:11;3.97;;;1.50;;
13349;SDS011;6744;53.190;6.576;2023-06-14T12:24:36;4.43;;;1.43;;
13349;SDS011;6744;53.190;6.576;2023-06-14T12:27:03;2.13;;;1.33;;
13349;SDS011;6744;53.190;6.576;2023-06-14T12:29:29;1.97;;;1.40;;
13349;SDS011;6744;53.190;6.576;2023-06-14T12:31:55;1.83;;;1.40;;
13349;SDS011;6744;53.190;6.576;2023-06-14T12:34:22;1.50;;;1.40;;
13349;SDS011;6744;53.190;6.576;2023-06-14T12:36:48;2.13;;;1.50;;
13349;SDS011;6744;53.190;6.576;2023-06-14T12:39:13;1.77;;;1.40;;
13349;SDS011;6744;53.190;6.576;2023-06-14T12:41:39;2.57;;;1.50;;
13349;SDS011;6744;53.190;6.576;2023-06-14T12:44:06;2.53;;;1.27;;
13349;SDS011;6744;53.190;6.576;2023-06-14T12:46:32;1.80;;;1.40;;
13349;SDS011;6744;53.190;6.576;2023-06-14T12:48:57;2.93;;;1.60;;
13349;SDS011;6744;53.190;6.576;2023-06-14T12:51:23;3.20;;;1.50;;
13349;SDS011;6744;53.190;6.576;2023-06-14T12:53:49;2.77;;;1.60;;
13349;SDS011;6744;53.190;6.576;2023-06-14T12:56:20;4.23;;;1.50;;
13349;SDS011;6744;53.190;6.576;2023-06-14T12:58:46;2.73;;;1.50;;
13349;SDS011;6744;53.190;6.576;2023-06-14T13:01:11;1.70;;;1.40;;
13349;SDS011;6744;53.190;6.576;2023-06-14T13:03:36;3.77;;;1.37;;
13349;SDS011;6744;53.190;6.576;2023-06-14T13:06:03;2.13;;;1.63;;
13349;SDS011;6744;53.190;6.576;2023-06-14T13:08:29;2.83;;;1.50;;
13349;SDS011;6744;53.190;6.576;2023-06-14T13:10:55;3.13;;;1.63;;
13349;SDS011;6744;53.190;6.576;2023-06-14T13:13:20;3.53;;;1.60;;
13349;SDS011;6744;53.190;6.576;2023-06-14T13:15:45;1.60;;;1.50;;
13349;SDS011;6744;53.190;6.576;2023-06-14T13:18:11;4.00;;;1.43;;
13349;SDS011;6744;53.190;6.576;2023-06-14T13:20:38;4.10;;;1.50;;
13349;SDS011;6744;53.190;6.576;2023-06-14T13:23:04;1.53;;;1.43;;
13349;SDS011;6744;53.190;6.576;2023-06-14T13:25:32;1.97;;;1.43;;
13349;SDS011;6744;53.190;6.576;2023-06-14T13:27:57;3.83;;;1.77;;
13349;SDS011;6744;53.190;6.576;2023-06-14T13:30:23;5.30;;;1.80;;
13349;SDS011;6744;53.190;6.576;2023-06-14T13:32:48;5.60;;;1.77;;
13349;SDS011;6744;53.190;6.576;2023-06-14T13:35:14;3.70;;;1.60;;
13349;SDS011;6744;53.190;6.576;2023-06-14T13:37:39;2.77;;;1.60;;
13349;SDS011;6744;53.190;6.576;2023-06-14T13:40:05;1.40;;;1.30;;
13349;SDS011;6744;53.190;6.576;2023-06-14T13:42:31;1.87;;;1.60;;
13349;SDS011;6744;53.190;6.576;2023-06-14T13:44:57;3.53;;;1.57;;
13349;SDS011;6744;53.190;6.576;2023-06-14T13:47:23;2.20;;;1.63;;
13349;SDS011;6744;53.190;6.576;2023-06-14T13:49:48;2.43;;;1.80;;
13349;SDS011;6744;53.190;6.576;2023-06-14T13:52:13;2.17;;;1.50;;
13349;SDS011;6744;53.190;6.576;2023-06-14T13:54:39;1.77;;;1.60;;
13349;SDS011;6744;53.190;6.576;2023-06-14T13:57:04;2.80;;;1.83;;
13349;SDS011;6744;53.190;6.576;2023-06-14T13:59:30;5.93;;;1.87;;
13349;SDS011;6744;53.190;6.576;2023-06-14T14:01:56;1.87;;;1.60;;
13349;SDS011;6744;53.190;6.576;2023-06-14T14:04:21;2.00;;;1.80;;
13349;SDS011;6744;53.190;6.576;2023-06-14T14:06:47;4.70;;;1.70;;
13349;SDS011;6744;53.190;6.576;2023-06-14T14:09:12;3.20;;;1.70;;
13349;SDS011;6744;53.190;6.576;2023-06-14T14:11:37;2.83;;;1.73;;
13349;SDS011;6744;53.190;6.576;2023-06-14T14:14:04;1.77;;;1.67;;
13349;SDS011;6744;53.190;6.576;2023-06-14T14:16:30;3.03;;;1.70;;
13349;SDS011;6744;53.190;6.576;2023-06-14T14:18:55;4.47;;;1.70;;
13349;SDS011;6744;53.190;6.576;2023-06-14T14:21:21;1.90;;;1.70;;
13349;SDS011;6744;53.190;6.576;2023-06-14T14:23:46;2.17;;;1.63;;
13349;SDS011;6744;53.190;6.576;2023-06-14T14:26:12;4.67;;;1.60;;
13349;SDS011;6744;53.190;6.576;2023-06-14T14:28:37;1.70;;;1.60;;
13349;SDS011;6744;53.190;6.576;2023-06-14T14:31:02;4.07;;;1.80;;
13349;SDS011;6744;53.190;6.576;2023-06-14T14:33:28;3.00;;;1.70;;
13349;SDS011;6744;53.190;6.576;2023-06-14T14:35:53;3.40;;;1.70;;
13349;SDS011;6744;53.190;6.576;2023-06-14T14:38:18;3.70;;;1.70;;
13349;SDS011;6744;53.190;6.576;2023-06-14T14:40:44;2.53;;;1.70;;
13349;SDS011;6744;53.190;6.576;2023-06-14T14:43:10;2.23;;;1.67;;
13349;SDS011;6744;53.190;6.576;2023-06-14T14:45:36;4.27;;;1.90;;
13349;SDS011;6744;53.190;6.576;2023-06-14T14:48:01;1.90;;;1.80;;
13349;SDS011;6744;53.190;6.576;2023-06-14T14:50:27;2.90;;;1.80;;
13349;SDS011;6744;53.190;6.576;2023-06-14T14:52:53;1.73;;;1.60;;
13349;SDS011;6744;53.190;6.576;2023-06-14T14:55:18;2.67;;;1.80;;
13349;SDS011;6744;53.190;6.576;2023-06-14T14:57:45;1.60;;;1.50;;
13349;SDS011;6744;53.190;6.576;2023-06-14T15:00:11;2.93;;;2.00;;
13349;SDS011;6744;53.190;6.576;2023-06-14T15:02:36;3.20;;;1.97;;
13349;SDS011;6744;53.190;6.576;2023-06-14T15:05:02;2.57;;;1.73;;
13349;SDS011;6744;53.190;6.576;2023-06-14T15:07:27;2.00;;;1.80;;
13349;SDS011;6744;53.190;6.576;2023-06-14T15:09:54;2.60;;;1.77;;
13349;SDS011;6744;53.190;6.576;2023-06-14T15:12:22;1.97;;;1.40;;